createdAt,value
2022-09-12T00:00:39.496Z,92.09
2022-09-12T00:05:32.822Z,93.25
2022-09-12T00:10:24.569Z,93.69
2022-09-12T00:15:16.308Z,94.79
2022-09-12T00:20:09.463Z,96.13
2022-09-12T00:25:01.164Z,96.93
2022-09-12T00:29:52.823Z,97.63
2022-09-12T00:34:44.602Z,98.01
2022-09-12T00:39:36.157Z,99.04
2022-09-12T00:44:27.983Z,99.55
2022-09-12T00:49:42.950Z,100.00
2022-09-12T00:54:42.843Z,100.00
2022-09-12T00:59:57.531Z,100.00
2022-09-12T01:04:51.381Z,100.00
2022-09-12T01:09:45.382Z,100.00
2022-09-12T01:14:38.425Z,100.00
2022-09-12T01:19:54.729Z,100.00
2022-09-12T01:24:53.009Z,100.00
2022-09-12T01:30:13.614Z,100.00
2022-09-12T01:35:10.841Z,100.00
2022-09-12T01:40:31.708Z,100.00
2022-09-12T01:45:33.905Z,100.00
2022-09-12T01:50:31.153Z,100.00
2022-09-12T01:55:28.764Z,100.00
2022-09-12T02:00:20.597Z,100.00
2022-09-12T02:05:20.459Z,100.00
2022-09-12T02:10:18.216Z,100.00
2022-09-12T02:15:12.226Z,100.00
2022-09-12T02:20:25.998Z,100.00
2022-09-12T02:25:29.346Z,100.00
2022-09-12T02:30:22.220Z,100.00
2022-09-12T02:35:47.122Z,100.00
2022-09-12T02:40:39.086Z,100.00
2022-09-12T02:45:34.373Z,100.00
2022-09-12T02:50:26.925Z,100.00
2022-09-12T02:55:18.958Z,100.00
2022-09-12T03:00:11.323Z,100.00
2022-09-12T03:05:09.116Z,100.00
2022-09-12T03:10:03.773Z,100.00
2022-09-12T03:15:38.407Z,100.00
2022-09-12T03:20:39.353Z,100.00
2022-09-12T03:25:34.371Z,100.00
2022-09-12T03:30:26.987Z,100.00
2022-09-12T03:35:23.128Z,100.00
2022-09-12T03:40:15.687Z,100.00
2022-09-12T03:45:08.806Z,100.00
2022-09-12T03:50:00.598Z,100.00
2022-09-12T03:54:52.263Z,100.00
2022-09-12T03:59:43.972Z,100.00
2022-09-12T04:04:35.646Z,100.00
2022-09-12T04:09:27.342Z,100.00
2022-09-12T04:14:18.985Z,100.00
2022-09-12T04:19:11.884Z,100.00
2022-09-12T04:24:03.797Z,100.00
2022-09-12T04:28:57.765Z,100.00
2022-09-12T04:33:57.326Z,100.00
2022-09-12T04:38:49.011Z,100.00
2022-09-12T04:43:41.132Z,100.00
2022-09-12T04:48:32.816Z,100.00
2022-09-12T04:53:24.506Z,100.00
2022-09-12T04:58:16.333Z,100.00
2022-09-12T05:03:08.501Z,100.00
2022-09-12T05:08:00.276Z,100.00
2022-09-12T05:12:52.857Z,100.00
2022-09-12T05:17:44.697Z,100.00
2022-09-12T05:22:36.329Z,100.00
2022-09-12T05:27:27.968Z,100.00
2022-09-12T05:32:19.734Z,100.00
2022-09-12T05:37:11.431Z,100.00
2022-09-12T05:42:03.415Z,100.00
2022-09-12T05:46:55.052Z,100.00
2022-09-12T05:51:46.851Z,100.00
2022-09-12T05:56:41.343Z,100.00
2022-09-12T06:01:35.526Z,100.00
2022-09-12T06:06:29.145Z,100.00
2022-09-12T06:11:24.949Z,100.00
2022-09-12T06:16:22.550Z,100.00
2022-09-12T06:21:14.705Z,100.00
2022-09-12T06:26:08.618Z,100.00
2022-09-12T06:31:06.151Z,100.00
2022-09-12T06:36:06.900Z,100.00
2022-09-12T06:41:00.710Z,100.00
2022-09-12T06:45:52.315Z,100.00
2022-09-12T06:50:44.223Z,100.00
2022-09-12T06:55:35.935Z,100.00
2022-09-12T07:00:27.807Z,100.00
2022-09-12T07:05:19.519Z,100.00
2022-09-12T07:10:12.499Z,100.00
2022-09-12T07:15:04.317Z,100.00
2022-09-12T07:19:56.280Z,100.00
2022-09-12T07:24:47.969Z,100.00
2022-09-12T07:29:39.703Z,100.00
2022-09-12T07:34:31.905Z,100.00
2022-09-12T07:39:23.582Z,100.00
2022-09-12T07:44:15.214Z,100.00
2022-09-12T07:49:08.578Z,100.00
2022-09-12T07:54:00.377Z,100.00
2022-09-12T07:58:52.120Z,100.00
2022-09-12T08:03:47.363Z,100.00
2022-09-12T08:08:39.173Z,99.62
2022-09-12T08:13:30.873Z,96.39
2022-09-12T08:18:22.621Z,93.90
2022-09-12T08:23:14.260Z,94.03
2022-09-12T08:28:06.386Z,94.48
2022-09-12T08:32:58.413Z,94.81
2022-09-12T08:37:50.085Z,94.12
2022-09-12T08:43:00.499Z,93.85
2022-09-12T08:47:52.788Z,93.33
2022-09-12T08:52:59.705Z,91.49
2022-09-12T08:57:52.125Z,91.72
2022-09-12T09:03:01.802Z,91.52
2022-09-12T09:08:22.818Z,90.16
2022-09-12T09:13:43.365Z,89.40
2022-09-12T09:18:36.034Z,88.66
2022-09-12T09:23:34.117Z,87.38
2022-09-12T09:28:29.248Z,87.82
2022-09-12T09:33:28.150Z,86.82
2022-09-12T09:38:41.088Z,88.20
2022-09-12T09:43:32.845Z,85.42
2022-09-12T09:48:47.368Z,85.02
2022-09-12T09:53:56.595Z,82.27
2022-09-12T09:58:48.397Z,80.49
2022-09-12T10:03:40.624Z,75.98
2022-09-12T10:08:35.361Z,74.65
2022-09-12T10:13:42.678Z,75.37
2022-09-12T10:18:37.726Z,74.28
2022-09-12T10:23:37.790Z,75.17
2022-09-12T10:28:37.616Z,73.53
2022-09-12T10:33:30.021Z,72.58
2022-09-12T10:38:32.265Z,72.28
2022-09-12T10:43:29.656Z,71.80
2022-09-12T10:48:31.972Z,71.55
2022-09-12T10:53:25.161Z,70.28
2022-09-12T10:58:32.234Z,70.40
2022-09-12T11:03:49.163Z,70.22
2022-09-12T11:08:53.492Z,70.11
2022-09-12T11:14:06.823Z,69.75
2022-09-12T11:19:21.677Z,69.25
2022-09-12T11:24:25.714Z,69.56
2022-09-12T11:29:29.273Z,67.75
2022-09-12T11:34:40.015Z,66.30
2022-09-12T11:39:40.063Z,66.53
2022-09-12T11:44:40.665Z,67.55
2022-09-12T11:49:38.584Z,67.82
2022-09-12T11:54:39.260Z,68.47
2022-09-12T11:59:42.759Z,68.93
2022-09-12T12:04:44.632Z,69.77
2022-09-12T12:09:45.529Z,70.99
2022-09-12T12:14:47.286Z,71.42
2022-09-12T12:19:39.028Z,71.93
2022-09-12T12:24:30.797Z,71.83
2022-09-12T12:29:22.356Z,72.45
2022-09-12T12:34:35.944Z,72.48
2022-09-12T12:39:33.653Z,72.09
2022-09-12T12:44:44.092Z,72.67
2022-09-12T12:49:36.096Z,72.70
2022-09-12T12:54:48.299Z,74.94
2022-09-12T12:59:52.004Z,76.78
2022-09-12T13:04:45.260Z,79.14
2022-09-12T13:09:49.959Z,81.39
2022-09-12T13:14:51.903Z,81.98
2022-09-12T13:19:44.221Z,82.02
2022-09-12T13:24:52.375Z,82.90
2022-09-12T13:29:44.112Z,84.51
2022-09-12T13:34:46.360Z,84.88
2022-09-12T13:39:44.217Z,85.31
2022-09-12T13:44:44.669Z,86.45
2022-09-12T13:49:39.465Z,87.64
2022-09-12T13:54:32.638Z,88.90
2022-09-12T13:59:24.963Z,89.77
2022-09-12T14:04:40.751Z,89.69
2022-09-12T14:09:38.570Z,90.36
2022-09-12T14:14:36.695Z,91.04
2022-09-12T14:19:29.332Z,91.69
2022-09-12T14:24:23.467Z,92.43
2022-09-12T14:29:16.885Z,92.41
2022-09-12T14:34:17.225Z,92.45
2022-09-12T14:39:30.787Z,92.61
2022-09-12T14:44:27.782Z,93.03
2022-09-12T14:49:35.134Z,92.19
2022-09-12T14:54:30.278Z,93.52
2022-09-12T14:59:40.479Z,93.43
2022-09-12T15:04:39.551Z,93.21
2022-09-12T15:09:31.250Z,92.34
2022-09-12T15:14:22.869Z,93.12
2022-09-12T15:19:14.544Z,93.37
2022-09-12T15:24:06.478Z,93.00
2022-09-12T15:33:49.830Z,95.06
2022-09-12T15:38:41.598Z,95.23
2022-09-12T15:43:33.222Z,94.96
2022-09-12T15:48:24.862Z,94.88
2022-09-12T15:53:17.317Z,95.12
2022-09-12T15:58:09.329Z,93.71
2022-09-12T16:03:01.181Z,94.02
2022-09-12T16:07:54.226Z,93.19
2022-09-12T16:12:46.310Z,92.15
2022-09-12T16:17:37.923Z,92.70
2022-09-12T16:22:29.809Z,92.91
2022-09-12T16:27:21.463Z,93.49
2022-09-12T16:32:13.244Z,93.25
2022-09-12T16:37:05.647Z,93.13
2022-09-12T16:41:57.458Z,92.81
2022-09-12T16:46:50.902Z,93.52
2022-09-12T16:51:45.052Z,93.57
2022-09-12T16:56:36.807Z,93.15
2022-09-12T17:01:28.597Z,93.80
2022-09-12T17:06:20.524Z,93.95
2022-09-12T17:11:15.165Z,94.31
2022-09-12T17:16:08.669Z,93.67
2022-09-12T17:21:00.394Z,93.34
2022-09-12T17:25:52.499Z,93.96
2022-09-12T17:30:44.660Z,93.93
2022-09-12T17:35:37.845Z,94.24
2022-09-12T17:40:55.793Z,94.14
2022-09-12T17:45:41.872Z,92.75
2022-09-12T17:50:40.623Z,92.08
2022-09-12T17:55:36.095Z,92.86
2022-09-12T18:00:48.262Z,93.35
2022-09-12T18:05:52.867Z,94.41
2022-09-12T18:10:45.050Z,94.87
2022-09-12T18:15:37.081Z,94.14
2022-09-12T18:20:29.054Z,94.11
2022-09-12T18:25:20.801Z,94.33
2022-09-12T18:30:22.130Z,94.44
2022-09-12T18:35:14.382Z,93.68
2022-09-12T18:40:06.302Z,93.86
2022-09-12T18:44:58.047Z,93.56
2022-09-12T18:49:49.690Z,94.02
2022-09-12T18:54:42.137Z,94.32
2022-09-12T18:59:33.863Z,94.46
2022-09-12T19:04:25.692Z,94.84
2022-09-12T19:09:20.721Z,95.04
2022-09-12T19:14:12.516Z,96.13
2022-09-12T19:19:04.355Z,96.61
2022-09-12T19:23:58.921Z,96.56
2022-09-12T19:28:50.980Z,95.83
2022-09-12T19:33:42.751Z,94.73
2022-09-12T19:38:35.070Z,94.77
2022-09-12T19:43:27.543Z,93.60
2022-09-12T19:48:20.361Z,93.34
2022-09-12T19:53:12.258Z,92.09
2022-09-12T19:58:07.757Z,90.87
2022-09-12T20:03:00.021Z,91.22
2022-09-12T20:07:53.293Z,91.17
2022-09-12T20:12:45.128Z,91.75
2022-09-12T20:17:37.016Z,91.09
2022-09-12T20:22:28.832Z,91.49
2022-09-12T20:27:20.821Z,92.08
2022-09-12T20:32:12.433Z,92.08
2022-09-12T20:37:04.289Z,91.49
2022-09-12T20:41:56.078Z,91.25
2022-09-12T20:46:47.808Z,91.69
2022-09-12T20:51:39.537Z,91.77
2022-09-12T20:56:33.621Z,91.98
2022-09-12T21:01:28.540Z,92.29
2022-09-12T21:06:21.475Z,92.61
2022-09-12T21:11:14.802Z,92.04
2022-09-12T21:16:11.299Z,92.34
2022-09-12T21:21:05.454Z,92.63
2022-09-12T21:25:59.728Z,93.16
2022-09-12T21:30:52.680Z,93.12
2022-09-12T21:35:45.403Z,93.40
2022-09-12T21:40:38.213Z,93.27
2022-09-12T21:45:30.526Z,93.53
2022-09-12T21:50:22.188Z,93.45
2022-09-12T21:55:13.969Z,93.45
2022-09-12T22:00:08.086Z,94.08
2022-09-12T22:04:59.828Z,93.98
2022-09-12T22:09:52.237Z,93.92
2022-09-12T22:14:44.857Z,93.35
2022-09-12T22:19:37.241Z,92.67
2022-09-12T22:24:29.139Z,92.61
2022-09-12T22:29:21.957Z,92.90
2022-09-12T22:34:14.593Z,92.84
2022-09-12T22:39:07.634Z,93.15
2022-09-12T22:43:59.863Z,92.44
2022-09-12T22:48:52.359Z,91.92
2022-09-12T22:53:44.285Z,90.98
2022-09-12T22:58:41.400Z,91.16
2022-09-12T23:03:33.260Z,90.32
2022-09-12T23:08:29.535Z,90.28
2022-09-12T23:13:21.341Z,89.38
2022-09-12T23:18:12.939Z,89.92
2022-09-12T23:23:04.589Z,89.80
2022-09-12T23:27:56.301Z,89.15
2022-09-12T23:32:50.689Z,89.38
2022-09-12T23:37:42.328Z,89.03
2022-09-12T23:42:34.000Z,89.64
2022-09-12T23:47:25.649Z,89.04
2022-09-12T23:52:17.289Z,89.31
2022-09-12T23:57:08.931Z,89.56
